sensor_id;sensor_type;location;lat;lon;timestamp;temperature;humidity
34877;DHT22;21086;44.780;17.194;2024-02-21T00:01:58;9.40;99.90
34877;DHT22;21086;44.780;17.194;2024-02-21T00:04:25;9.60;99.90
34877;DHT22;21086;44.780;17.194;2024-02-21T00:06:53;9.50;99.90
34877;DHT22;21086;44.780;17.194;2024-02-21T00:09:20;9.30;99.90
34877;DHT22;21086;44.780;17.194;2024-02-21T00:11:47;10.10;99.90
34877;DHT22;21086;44.780;17.194;2024-02-21T00:14:17;9.40;99.90
34877;DHT22;21086;44.780;17.194;2024-02-21T00:16:45;9.20;99.90
34877;DHT22;21086;44.780;17.194;2024-02-21T00:19:14;9.20;99.90
34877;DHT22;21086;44.780;17.194;2024-02-21T00:21:44;9.20;99.90
34877;DHT22;21086;44.780;17.194;2024-02-21T00:24:11;9.20;99.90
34877;DHT22;21086;44.780;17.194;2024-02-21T00:26:38;9.10;99.90
34877;DHT22;21086;44.780;17.194;2024-02-21T00:29:08;9.20;99.90
34877;DHT22;21086;44.780;17.194;2024-02-21T00:31:38;8.90;99.90
34877;DHT22;21086;44.780;17.194;2024-02-21T00:34:07;6.00;99.90
34877;DHT22;21086;44.780;17.194;2024-02-21T00:36:34;8.70;99.90
34877;DHT22;21086;44.780;17.194;2024-02-21T00:39:02;8.60;99.90
34877;DHT22;21086;44.780;17.194;2024-02-21T00:41:29;8.70;99.90
34877;DHT22;21086;44.780;17.194;2024-02-21T00:43:56;8.60;99.90
34877;DHT22;21086;44.780;17.194;2024-02-21T00:46:23;8.40;99.90
34877;DHT22;21086;44.780;17.194;2024-02-21T00:48:50;8.50;99.90
34877;DHT22;21086;44.780;17.194;2024-02-21T00:51:17;8.40;99.90
34877;DHT22;21086;44.780;17.194;2024-02-21T00:53:44;8.50;99.90
34877;DHT22;21086;44.780;17.194;2024-02-21T00:56:11;8.60;99.90
34877;DHT22;21086;44.780;17.194;2024-02-21T00:58:38;8.60;99.90
34877;DHT22;21086;44.780;17.194;2024-02-21T01:01:05;8.60;99.90
34877;DHT22;21086;44.780;17.194;2024-02-21T01:03:32;8.70;99.90
34877;DHT22;21086;44.780;17.194;2024-02-21T01:05:59;8.80;99.90
34877;DHT22;21086;44.780;17.194;2024-02-21T01:08:26;9.00;99.90
34877;DHT22;21086;44.780;17.194;2024-02-21T01:10:53;9.00;99.90
34877;DHT22;21086;44.780;17.194;2024-02-21T01:13:20;9.20;99.90
34877;DHT22;21086;44.780;17.194;2024-02-21T01:15:47;9.30;99.90
34877;DHT22;21086;44.780;17.194;2024-02-21T01:18:14;9.40;99.90
34877;DHT22;21086;44.780;17.194;2024-02-21T01:20:41;9.30;99.90
34877;DHT22;21086;44.780;17.194;2024-02-21T01:23:08;9.40;99.90
34877;DHT22;21086;44.780;17.194;2024-02-21T01:25:36;9.40;99.90
34877;DHT22;21086;44.780;17.194;2024-02-21T01:28:03;9.40;99.90
34877;DHT22;21086;44.780;17.194;2024-02-21T01:30:30;9.50;99.90
34877;DHT22;21086;44.780;17.194;2024-02-21T01:32:57;9.50;99.90
34877;DHT22;21086;44.780;17.194;2024-02-21T01:35:24;9.60;99.90
34877;DHT22;21086;44.780;17.194;2024-02-21T01:37:51;9.60;99.90
34877;DHT22;21086;44.780;17.194;2024-02-21T01:40:18;9.70;99.90
34877;DHT22;21086;44.780;17.194;2024-02-21T01:42:46;9.80;99.90
34877;DHT22;21086;44.780;17.194;2024-02-21T01:45:14;9.80;99.90
34877;DHT22;21086;44.780;17.194;2024-02-21T01:47:44;9.90;99.90
34877;DHT22;21086;44.780;17.194;2024-02-21T01:50:14;9.90;99.90
34877;DHT22;21086;44.780;17.194;2024-02-21T01:52:43;10.00;99.90
34877;DHT22;21086;44.780;17.194;2024-02-21T01:55:13;9.90;99.90
34877;DHT22;21086;44.780;17.194;2024-02-21T01:57:42;9.80;99.90
34877;DHT22;21086;44.780;17.194;2024-02-21T02:00:13;9.80;99.90
34877;DHT22;21086;44.780;17.194;2024-02-21T02:02:42;9.80;99.90
34877;DHT22;21086;44.780;17.194;2024-02-21T02:05:09;9.80;99.90
34877;DHT22;21086;44.780;17.194;2024-02-21T02:07:37;9.80;99.90
34877;DHT22;21086;44.780;17.194;2024-02-21T02:10:04;9.90;99.90
34877;DHT22;21086;44.780;17.194;2024-02-21T02:12:32;9.90;99.90
34877;DHT22;21086;44.780;17.194;2024-02-21T02:15:03;9.80;99.90
34877;DHT22;21086;44.780;17.194;2024-02-21T02:17:33;9.70;99.90
34877;DHT22;21086;44.780;17.194;2024-02-21T02:20:00;9.70;99.90
34877;DHT22;21086;44.780;17.194;2024-02-21T02:22:32;9.70;99.90
34877;DHT22;21086;44.780;17.194;2024-02-21T02:25:01;9.70;99.90
34877;DHT22;21086;44.780;17.194;2024-02-21T02:27:28;9.50;99.90
34877;DHT22;21086;44.780;17.194;2024-02-21T02:29:55;9.60;99.90
34877;DHT22;21086;44.780;17.194;2024-02-21T02:32:22;9.60;99.90
34877;DHT22;21086;44.780;17.194;2024-02-21T02:34:49;9.80;99.90
34877;DHT22;21086;44.780;17.194;2024-02-21T02:37:16;9.70;99.90
34877;DHT22;21086;44.780;17.194;2024-02-21T02:39:43;9.60;99.90
34877;DHT22;21086;44.780;17.194;2024-02-21T02:42:10;9.70;99.90
34877;DHT22;21086;44.780;17.194;2024-02-21T02:44:37;9.60;99.90
34877;DHT22;21086;44.780;17.194;2024-02-21T02:47:04;9.70;99.90
34877;DHT22;21086;44.780;17.194;2024-02-21T02:49:31;9.40;99.90
34877;DHT22;21086;44.780;17.194;2024-02-21T02:51:58;9.30;99.90
34877;DHT22;21086;44.780;17.194;2024-02-21T02:54:25;9.30;99.90
34877;DHT22;21086;44.780;17.194;2024-02-21T02:56:52;9.30;99.90
34877;DHT22;21086;44.780;17.194;2024-02-21T02:59:19;9.30;99.90
34877;DHT22;21086;44.780;17.194;2024-02-21T03:01:46;9.20;99.90
34877;DHT22;21086;44.780;17.194;2024-02-21T03:04:13;9.10;99.90
34877;DHT22;21086;44.780;17.194;2024-02-21T03:06:40;9.00;99.90
34877;DHT22;21086;44.780;17.194;2024-02-21T03:09:07;9.00;99.90
34877;DHT22;21086;44.780;17.194;2024-02-21T03:11:36;9.10;99.90
34877;DHT22;21086;44.780;17.194;2024-02-21T03:14:04;9.00;99.90
34877;DHT22;21086;44.780;17.194;2024-02-21T03:16:31;8.90;99.90
34877;DHT22;21086;44.780;17.194;2024-02-21T03:18:58;8.80;99.90
34877;DHT22;21086;44.780;17.194;2024-02-21T03:21:25;8.80;99.90
34877;DHT22;21086;44.780;17.194;2024-02-21T03:23:52;8.80;99.90
34877;DHT22;21086;44.780;17.194;2024-02-21T03:26:19;8.80;99.90
34877;DHT22;21086;44.780;17.194;2024-02-21T03:28:46;8.90;99.90
34877;DHT22;21086;44.780;17.194;2024-02-21T03:31:13;9.00;99.90
34877;DHT22;21086;44.780;17.194;2024-02-21T03:33:42;8.90;99.90
34877;DHT22;21086;44.780;17.194;2024-02-21T03:36:13;8.90;99.90
34877;DHT22;21086;44.780;17.194;2024-02-21T03:38:41;9.00;99.90
34877;DHT22;21086;44.780;17.194;2024-02-21T03:41:08;9.10;99.90
34877;DHT22;21086;44.780;17.194;2024-02-21T03:43:37;9.10;99.90
34877;DHT22;21086;44.780;17.194;2024-02-21T03:46:05;9.10;99.90
34877;DHT22;21086;44.780;17.194;2024-02-21T03:48:33;9.10;99.90
34877;DHT22;21086;44.780;17.194;2024-02-21T03:51:00;9.20;99.90
34877;DHT22;21086;44.780;17.194;2024-02-21T03:53:27;9.10;99.90
34877;DHT22;21086;44.780;17.194;2024-02-21T03:55:56;9.10;99.90
34877;DHT22;21086;44.780;17.194;2024-02-21T03:58:23;9.00;99.90
34877;DHT22;21086;44.780;17.194;2024-02-21T04:00:50;9.20;99.90
34877;DHT22;21086;44.780;17.194;2024-02-21T04:03:17;9.20;99.90
34877;DHT22;21086;44.780;17.194;2024-02-21T04:05:44;9.10;99.90
34877;DHT22;21086;44.780;17.194;2024-02-21T04:08:11;9.10;99.90
34877;DHT22;21086;44.780;17.194;2024-02-21T04:10:38;9.20;99.90
34877;DHT22;21086;44.780;17.194;2024-02-21T04:13:06;9.20;99.90
34877;DHT22;21086;44.780;17.194;2024-02-21T04:15:33;9.30;99.90
34877;DHT22;21086;44.780;17.194;2024-02-21T04:18:01;9.30;99.90
34877;DHT22;21086;44.780;17.194;2024-02-21T04:20:28;9.30;99.90
34877;DHT22;21086;44.780;17.194;2024-02-21T04:22:56;9.40;99.90
34877;DHT22;21086;44.780;17.194;2024-02-21T04:25:23;9.50;99.90
34877;DHT22;21086;44.780;17.194;2024-02-21T04:27:50;9.60;99.90
34877;DHT22;21086;44.780;17.194;2024-02-21T04:30:18;9.50;99.90
34877;DHT22;21086;44.780;17.194;2024-02-21T04:32:45;9.50;99.90
34877;DHT22;21086;44.780;17.194;2024-02-21T04:35:12;9.50;99.90
34877;DHT22;21086;44.780;17.194;2024-02-21T04:37:39;9.50;99.90
34877;DHT22;21086;44.780;17.194;2024-02-21T04:40:06;9.50;99.90
34877;DHT22;21086;44.780;17.194;2024-02-21T04:42:33;9.50;99.90
34877;DHT22;21086;44.780;17.194;2024-02-21T04:45:00;9.50;99.90
34877;DHT22;21086;44.780;17.194;2024-02-21T04:47:28;9.60;99.90
34877;DHT22;21086;44.780;17.194;2024-02-21T04:49:55;9.60;99.90
34877;DHT22;21086;44.780;17.194;2024-02-21T04:52:22;9.60;99.90
34877;DHT22;21086;44.780;17.194;2024-02-21T04:54:52;9.50;99.90
34877;DHT22;21086;44.780;17.194;2024-02-21T04:57:19;9.50;99.90
34877;DHT22;21086;44.780;17.194;2024-02-21T04:59:46;9.50;99.90
34877;DHT22;21086;44.780;17.194;2024-02-21T05:02:16;9.50;99.90
34877;DHT22;21086;44.780;17.194;2024-02-21T05:04:43;9.50;99.90
34877;DHT22;21086;44.780;17.194;2024-02-21T05:07:11;9.40;99.90
34877;DHT22;21086;44.780;17.194;2024-02-21T05:09:38;9.30;99.90
34877;DHT22;21086;44.780;17.194;2024-02-21T05:12:05;9.20;99.90
34877;DHT22;21086;44.780;17.194;2024-02-21T05:14:32;9.20;99.90
34877;DHT22;21086;44.780;17.194;2024-02-21T05:17:00;9.20;99.90
34877;DHT22;21086;44.780;17.194;2024-02-21T05:19:27;9.20;99.90
34877;DHT22;21086;44.780;17.194;2024-02-21T05:21:54;9.20;99.90
34877;DHT22;21086;44.780;17.194;2024-02-21T05:24:21;9.30;99.90
34877;DHT22;21086;44.780;17.194;2024-02-21T05:26:48;9.40;99.90
34877;DHT22;21086;44.780;17.194;2024-02-21T05:29:15;9.40;99.90
34877;DHT22;21086;44.780;17.194;2024-02-21T05:34:21;9.30;99.90
34877;DHT22;21086;44.780;17.194;2024-02-21T05:36:48;9.40;99.90
34877;DHT22;21086;44.780;17.194;2024-02-21T05:39:18;9.30;99.90
34877;DHT22;21086;44.780;17.194;2024-02-21T05:41:45;9.30;99.90
34877;DHT22;21086;44.780;17.194;2024-02-21T05:44:12;9.30;99.90
34877;DHT22;21086;44.780;17.194;2024-02-21T05:46:39;9.30;99.90
34877;DHT22;21086;44.780;17.194;2024-02-21T05:49:06;9.30;99.90
34877;DHT22;21086;44.780;17.194;2024-02-21T05:51:34;9.40;99.90
34877;DHT22;21086;44.780;17.194;2024-02-21T05:54:02;9.40;99.90
34877;DHT22;21086;44.780;17.194;2024-02-21T05:56:29;9.40;99.90
34877;DHT22;21086;44.780;17.194;2024-02-21T05:58:56;9.40;99.90
34877;DHT22;21086;44.780;17.194;2024-02-21T06:01:23;9.40;99.90
34877;DHT22;21086;44.780;17.194;2024-02-21T06:03:51;9.40;99.90
34877;DHT22;21086;44.780;17.194;2024-02-21T06:06:18;9.30;99.90
34877;DHT22;21086;44.780;17.194;2024-02-21T06:08:45;9.40;99.90
34877;DHT22;21086;44.780;17.194;2024-02-21T06:11:12;9.30;99.90
34877;DHT22;21086;44.780;17.194;2024-02-21T06:13:40;9.40;99.90
34877;DHT22;21086;44.780;17.194;2024-02-21T06:16:07;9.50;99.90
34877;DHT22;21086;44.780;17.194;2024-02-21T06:18:36;9.60;99.90
34877;DHT22;21086;44.780;17.194;2024-02-21T06:21:04;9.60;99.90
34877;DHT22;21086;44.780;17.194;2024-02-21T06:23:31;9.60;99.90
34877;DHT22;21086;44.780;17.194;2024-02-21T06:25:58;9.50;99.90
34877;DHT22;21086;44.780;17.194;2024-02-21T06:28:26;9.50;99.90
34877;DHT22;21086;44.780;17.194;2024-02-21T06:30:53;9.50;99.90
34877;DHT22;21086;44.780;17.194;2024-02-21T06:33:20;9.40;99.90
34877;DHT22;21086;44.780;17.194;2024-02-21T06:35:52;9.50;99.90
34877;DHT22;21086;44.780;17.194;2024-02-21T06:38:20;9.50;99.90
34877;DHT22;21086;44.780;17.194;2024-02-21T06:40:47;9.60;99.90
34877;DHT22;21086;44.780;17.194;2024-02-21T06:43:18;9.50;99.90
34877;DHT22;21086;44.780;17.194;2024-02-21T06:45:45;9.50;99.90
34877;DHT22;21086;44.780;17.194;2024-02-21T06:48:18;9.50;99.90
34877;DHT22;21086;44.780;17.194;2024-02-21T06:50:46;9.60;99.90
34877;DHT22;21086;44.780;17.194;2024-02-21T06:53:13;9.50;99.90
34877;DHT22;21086;44.780;17.194;2024-02-21T06:55:40;9.60;99.90
34877;DHT22;21086;44.780;17.194;2024-02-21T06:58:07;9.70;99.90
34877;DHT22;21086;44.780;17.194;2024-02-21T07:00:39;9.70;99.90
34877;DHT22;21086;44.780;17.194;2024-02-21T07:03:07;9.60;99.90
34877;DHT22;21086;44.780;17.194;2024-02-21T07:05:34;9.50;99.90
34877;DHT22;21086;44.780;17.194;2024-02-21T07:08:01;9.30;99.90
34877;DHT22;21086;44.780;17.194;2024-02-21T07:10:30;9.20;99.90
34877;DHT22;21086;44.780;17.194;2024-02-21T07:12:57;9.10;99.90
34877;DHT22;21086;44.780;17.194;2024-02-21T07:15:24;9.20;99.90
34877;DHT22;21086;44.780;17.194;2024-02-21T07:17:53;9.40;99.90
34877;DHT22;21086;44.780;17.194;2024-02-21T07:20:21;9.40;99.90
34877;DHT22;21086;44.780;17.194;2024-02-21T07:22:48;9.50;99.90
34877;DHT22;21086;44.780;17.194;2024-02-21T07:25:15;9.60;99.90
34877;DHT22;21086;44.780;17.194;2024-02-21T07:27:43;9.70;99.90
34877;DHT22;21086;44.780;17.194;2024-02-21T07:30:10;9.50;99.90
34877;DHT22;21086;44.780;17.194;2024-02-21T07:32:41;9.50;99.90
34877;DHT22;21086;44.780;17.194;2024-02-21T07:35:08;9.50;99.90
34877;DHT22;21086;44.780;17.194;2024-02-21T07:37:39;9.60;99.90
34877;DHT22;21086;44.780;17.194;2024-02-21T07:40:11;9.70;99.90
34877;DHT22;21086;44.780;17.194;2024-02-21T07:42:39;9.70;99.90
34877;DHT22;21086;44.780;17.194;2024-02-21T07:45:07;9.80;99.90
34877;DHT22;21086;44.780;17.194;2024-02-21T07:47:34;9.90;99.90
34877;DHT22;21086;44.780;17.194;2024-02-21T07:50:02;9.90;99.90
34877;DHT22;21086;44.780;17.194;2024-02-21T07:52:29;10.00;99.90
34877;DHT22;21086;44.780;17.194;2024-02-21T07:54:56;10.10;99.90
34877;DHT22;21086;44.780;17.194;2024-02-21T07:57:23;10.20;99.90
34877;DHT22;21086;44.780;17.194;2024-02-21T07:59:50;10.30;99.90
34877;DHT22;21086;44.780;17.194;2024-02-21T08:02:17;10.30;99.90
34877;DHT22;21086;44.780;17.194;2024-02-21T08:04:44;10.50;99.90
34877;DHT22;21086;44.780;17.194;2024-02-21T08:07:11;10.60;99.90
34877;DHT22;21086;44.780;17.194;2024-02-21T08:09:40;10.80;99.90
34877;DHT22;21086;44.780;17.194;2024-02-21T08:12:07;10.90;99.90
34877;DHT22;21086;44.780;17.194;2024-02-21T08:14:34;11.00;99.90
34877;DHT22;21086;44.780;17.194;2024-02-21T08:17:01;10.90;99.90
34877;DHT22;21086;44.780;17.194;2024-02-21T08:19:28;10.90;99.90
34877;DHT22;21086;44.780;17.194;2024-02-21T08:21:55;10.80;99.90
34877;DHT22;21086;44.780;17.194;2024-02-21T08:24:22;11.10;99.90
34877;DHT22;21086;44.780;17.194;2024-02-21T08:26:49;11.30;99.90
34877;DHT22;21086;44.780;17.194;2024-02-21T08:29:20;11.50;99.90
34877;DHT22;21086;44.780;17.194;2024-02-21T08:31:47;11.60;99.90
34877;DHT22;21086;44.780;17.194;2024-02-21T08:34:14;11.60;99.90
34877;DHT22;21086;44.780;17.194;2024-02-21T08:36:42;11.80;99.90
34877;DHT22;21086;44.780;17.194;2024-02-21T08:39:09;11.90;99.90
34877;DHT22;21086;44.780;17.194;2024-02-21T08:41:36;12.00;99.90
34877;DHT22;21086;44.780;17.194;2024-02-21T08:44:27;12.30;99.90
34877;DHT22;21086;44.780;17.194;2024-02-21T08:46:55;12.80;99.90
34877;DHT22;21086;44.780;17.194;2024-02-21T08:49:23;13.10;99.90
34877;DHT22;21086;44.780;17.194;2024-02-21T08:51:57;13.10;99.90
34877;DHT22;21086;44.780;17.194;2024-02-21T08:54:24;13.30;99.90
34877;DHT22;21086;44.780;17.194;2024-02-21T08:56:52;13.40;99.90
34877;DHT22;21086;44.780;17.194;2024-02-21T08:59:26;13.70;99.90
34877;DHT22;21086;44.780;17.194;2024-02-21T09:01:54;13.80;99.90
34877;DHT22;21086;44.780;17.194;2024-02-21T09:04:21;14.00;99.90
34877;DHT22;21086;44.780;17.194;2024-02-21T09:06:49;14.20;99.90
34877;DHT22;21086;44.780;17.194;2024-02-21T09:09:16;14.40;99.90
34877;DHT22;21086;44.780;17.194;2024-02-21T09:11:43;14.60;99.90
34877;DHT22;21086;44.780;17.194;2024-02-21T09:14:10;14.70;99.90
34877;DHT22;21086;44.780;17.194;2024-02-21T09:16:38;15.10;99.90
34877;DHT22;21086;44.780;17.194;2024-02-21T09:19:05;15.30;99.90
34877;DHT22;21086;44.780;17.194;2024-02-21T09:21:32;15.50;99.90
34877;DHT22;21086;44.780;17.194;2024-02-21T09:24:00;15.80;99.90
34877;DHT22;21086;44.780;17.194;2024-02-21T09:26:27;16.20;99.90
34877;DHT22;21086;44.780;17.194;2024-02-21T09:28:54;16.40;99.90
34877;DHT22;21086;44.780;17.194;2024-02-21T09:31:21;16.60;99.90
34877;DHT22;21086;44.780;17.194;2024-02-21T09:33:48;16.50;99.90
34877;DHT22;21086;44.780;17.194;2024-02-21T09:36:16;16.10;99.90
34877;DHT22;21086;44.780;17.194;2024-02-21T09:38:43;16.60;99.90
34877;DHT22;21086;44.780;17.194;2024-02-21T09:41:18;16.80;99.90
34877;DHT22;21086;44.780;17.194;2024-02-21T09:43:51;17.10;99.90
34877;DHT22;21086;44.780;17.194;2024-02-21T09:46:27;17.10;99.90
34877;DHT22;21086;44.780;17.194;2024-02-21T09:51:46;17.70;99.90
34877;DHT22;21086;44.780;17.194;2024-02-21T09:54:13;18.00;99.90
34877;DHT22;21086;44.780;17.194;2024-02-21T09:56:45;18.20;99.90
34877;DHT22;21086;44.780;17.194;2024-02-21T09:59:16;18.40;99.90
34877;DHT22;21086;44.780;17.194;2024-02-21T10:01:44;18.60;99.90
34877;DHT22;21086;44.780;17.194;2024-02-21T10:04:11;18.90;99.90
34877;DHT22;21086;44.780;17.194;2024-02-21T10:06:39;19.30;99.90
34877;DHT22;21086;44.780;17.194;2024-02-21T10:09:07;19.50;99.90
34877;DHT22;21086;44.780;17.194;2024-02-21T10:11:34;19.70;99.90
34877;DHT22;21086;44.780;17.194;2024-02-21T10:14:07;19.60;99.90
34877;DHT22;21086;44.780;17.194;2024-02-21T10:16:34;19.40;99.90
34877;DHT22;21086;44.780;17.194;2024-02-21T10:19:02;19.80;99.90
34877;DHT22;21086;44.780;17.194;2024-02-21T10:21:30;19.90;99.90
34877;DHT22;21086;44.780;17.194;2024-02-21T10:23:58;20.10;99.90
34877;DHT22;21086;44.780;17.194;2024-02-21T10:26:25;20.80;99.90
34877;DHT22;21086;44.780;17.194;2024-02-21T10:28:52;21.60;99.90
34877;DHT22;21086;44.780;17.194;2024-02-21T10:31:23;21.60;99.90
34877;DHT22;21086;44.780;17.194;2024-02-21T10:34:01;21.60;99.90
34877;DHT22;21086;44.780;17.194;2024-02-21T10:36:32;21.60;99.90
34877;DHT22;21086;44.780;17.194;2024-02-21T10:38:59;21.50;99.90
34877;DHT22;21086;44.780;17.194;2024-02-21T10:41:26;20.60;98.70
34877;DHT22;21086;44.780;17.194;2024-02-21T10:43:56;19.90;95.90
34877;DHT22;21086;44.780;17.194;2024-02-21T10:46:24;19.30;93.40
34877;DHT22;21086;44.780;17.194;2024-02-21T10:49:13;19.70;94.40
34877;DHT22;21086;44.780;17.194;2024-02-21T10:51:44;20.70;95.70
34877;DHT22;21086;44.780;17.194;2024-02-21T10:57:02;21.00;93.90
34877;DHT22;21086;44.780;17.194;2024-02-21T10:59:32;21.20;93.50
34877;DHT22;21086;44.780;17.194;2024-02-21T11:02:00;21.50;93.30
34877;DHT22;21086;44.780;17.194;2024-02-21T11:04:28;21.80;94.60
34877;DHT22;21086;44.780;17.194;2024-02-21T11:06:56;22.00;91.90
34877;DHT22;21086;44.780;17.194;2024-02-21T11:09:33;20.90;83.90
34877;DHT22;21086;44.780;17.194;2024-02-21T11:12:07;19.60;73.20
34877;DHT22;21086;44.780;17.194;2024-02-21T11:14:38;20.50;79.30
34877;DHT22;21086;44.780;17.194;2024-02-21T11:17:16;20.50;91.00
34877;DHT22;21086;44.780;17.194;2024-02-21T11:19:47;20.40;74.90
34877;DHT22;21086;44.780;17.194;2024-02-21T11:22:17;20.70;78.90
34877;DHT22;21086;44.780;17.194;2024-02-21T11:24:46;22.10;83.00
34877;DHT22;21086;44.780;17.194;2024-02-21T11:27:15;23.20;86.00
34877;DHT22;21086;44.780;17.194;2024-02-21T11:29:43;23.90;86.30
34877;DHT22;21086;44.780;17.194;2024-02-21T11:32:11;24.60;86.40
34877;DHT22;21086;44.780;17.194;2024-02-21T11:34:39;25.40;86.80
34877;DHT22;21086;44.780;17.194;2024-02-21T11:37:14;25.30;80.70
34877;DHT22;21086;44.780;17.194;2024-02-21T11:39:44;25.60;85.00
34877;DHT22;21086;44.780;17.194;2024-02-21T11:42:12;26.00;77.30
34877;DHT22;21086;44.780;17.194;2024-02-21T11:44:40;26.00;71.50
34877;DHT22;21086;44.780;17.194;2024-02-21T11:47:09;27.90;67.40
34877;DHT22;21086;44.780;17.194;2024-02-21T11:49:45;24.60;58.60
34877;DHT22;21086;44.780;17.194;2024-02-21T11:52:13;24.90;58.90
34877;DHT22;21086;44.780;17.194;2024-02-21T11:54:42;25.40;59.30
34877;DHT22;21086;44.780;17.194;2024-02-21T11:57:10;26.30;76.00
34877;DHT22;21086;44.780;17.194;2024-02-21T11:59:40;27.40;62.90
34877;DHT22;21086;44.780;17.194;2024-02-21T12:02:07;28.00;60.70
34877;DHT22;21086;44.780;17.194;2024-02-21T12:04:36;27.70;56.90
34877;DHT22;21086;44.780;17.194;2024-02-21T12:07:03;27.70;54.00
34877;DHT22;21086;44.780;17.194;2024-02-21T12:09:31;27.90;52.60
34877;DHT22;21086;44.780;17.194;2024-02-21T12:12:05;28.50;54.40
34877;DHT22;21086;44.780;17.194;2024-02-21T12:14:34;28.90;51.60
34877;DHT22;21086;44.780;17.194;2024-02-21T12:17:05;29.40;54.40
34877;DHT22;21086;44.780;17.194;2024-02-21T12:19:33;29.80;48.50
34877;DHT22;21086;44.780;17.194;2024-02-21T12:22:01;30.20;45.70
34877;DHT22;21086;44.780;17.194;2024-02-21T12:24:33;29.80;42.70
34877;DHT22;21086;44.780;17.194;2024-02-21T12:27:00;30.50;42.80
34877;DHT22;21086;44.780;17.194;2024-02-21T12:29:30;31.20;40.90
34877;DHT22;21086;44.780;17.194;2024-02-21T12:31:57;30.60;36.60
34877;DHT22;21086;44.780;17.194;2024-02-21T12:34:24;33.50;37.40
34877;DHT22;21086;44.780;17.194;2024-02-21T12:37:10;31.20;34.00
34877;DHT22;21086;44.780;17.194;2024-02-21T12:39:38;31.40;31.40
34877;DHT22;21086;44.780;17.194;2024-02-21T12:42:05;31.90;30.40
34877;DHT22;21086;44.780;17.194;2024-02-21T12:44:32;32.10;28.90
34877;DHT22;21086;44.780;17.194;2024-02-21T12:47:01;32.20;27.40
34877;DHT22;21086;44.780;17.194;2024-02-21T12:49:28;32.90;26.90
34877;DHT22;21086;44.780;17.194;2024-02-21T12:51:56;33.10;25.50
34877;DHT22;21086;44.780;17.194;2024-02-21T12:54:23;33.30;23.90
34877;DHT22;21086;44.780;17.194;2024-02-21T12:56:50;33.70;23.20
34877;DHT22;21086;44.780;17.194;2024-02-21T12:59:17;33.60;20.90
34877;DHT22;21086;44.780;17.194;2024-02-21T13:01:44;34.00;20.50
34877;DHT22;21086;44.780;17.194;2024-02-21T13:04:11;33.90;17.90
34877;DHT22;21086;44.780;17.194;2024-02-21T13:06:39;33.70;16.00
34877;DHT22;21086;44.780;17.194;2024-02-21T13:09:06;34.10;15.30
34877;DHT22;21086;44.780;17.194;2024-02-21T13:11:35;35.00;14.60
34877;DHT22;21086;44.780;17.194;2024-02-21T13:14:02;33.40;10.30
34877;DHT22;21086;44.780;17.194;2024-02-21T13:16:29;33.50;9.90
34877;DHT22;21086;44.780;17.194;2024-02-21T13:18:56;33.90;9.70
34877;DHT22;21086;44.780;17.194;2024-02-21T13:21:24;34.30;9.30
34877;DHT22;21086;44.780;17.194;2024-02-21T13:23:51;34.80;8.90
34877;DHT22;21086;44.780;17.194;2024-02-21T13:26:18;34.80;7.00
34877;DHT22;21086;44.780;17.194;2024-02-21T13:28:45;34.20;4.40
34877;DHT22;21086;44.780;17.194;2024-02-21T13:31:13;33.90;2.00
34877;DHT22;21086;44.780;17.194;2024-02-21T13:33:39;32.90;1.00
34877;DHT22;21086;44.780;17.194;2024-02-21T13:36:07;30.70;1.00
34877;DHT22;21086;44.780;17.194;2024-02-21T13:38:34;31.40;1.00
34877;DHT22;21086;44.780;17.194;2024-02-21T13:41:01;32.30;1.00
34877;DHT22;21086;44.780;17.194;2024-02-21T13:43:28;31.10;1.00
34877;DHT22;21086;44.780;17.194;2024-02-21T13:45:59;31.50;1.00
34877;DHT22;21086;44.780;17.194;2024-02-21T13:48:26;32.50;1.00
34877;DHT22;21086;44.780;17.194;2024-02-21T13:50:57;33.00;1.00
34877;DHT22;21086;44.780;17.194;2024-02-21T13:53:24;32.30;1.00
34877;DHT22;21086;44.780;17.194;2024-02-21T13:55:51;32.80;1.00
34877;DHT22;21086;44.780;17.194;2024-02-21T13:58:18;33.40;1.00
34877;DHT22;21086;44.780;17.194;2024-02-21T14:00:45;34.30;1.00
34877;DHT22;21086;44.780;17.194;2024-02-21T14:03:12;34.90;1.00
34877;DHT22;21086;44.780;17.194;2024-02-21T14:05:39;35.60;1.00
34877;DHT22;21086;44.780;17.194;2024-02-21T14:08:09;36.10;1.00
34877;DHT22;21086;44.780;17.194;2024-02-21T14:10:36;36.30;1.00
34877;DHT22;21086;44.780;17.194;2024-02-21T14:13:04;36.50;1.00
34877;DHT22;21086;44.780;17.194;2024-02-21T14:15:31;36.30;1.00
34877;DHT22;21086;44.780;17.194;2024-02-21T14:17:59;34.10;1.00
34877;DHT22;21086;44.780;17.194;2024-02-21T14:20:26;33.40;1.00
34877;DHT22;21086;44.780;17.194;2024-02-21T14:22:53;32.80;1.00
34877;DHT22;21086;44.780;17.194;2024-02-21T14:25:20;32.90;1.00
34877;DHT22;21086;44.780;17.194;2024-02-21T14:27:50;33.40;1.00
34877;DHT22;21086;44.780;17.194;2024-02-21T14:30:18;33.20;1.00
34877;DHT22;21086;44.780;17.194;2024-02-21T14:32:45;34.00;1.00
34877;DHT22;21086;44.780;17.194;2024-02-21T14:35:13;34.00;1.00
34877;DHT22;21086;44.780;17.194;2024-02-21T14:37:40;34.40;1.00
34877;DHT22;21086;44.780;17.194;2024-02-21T14:40:08;34.40;1.00
34877;DHT22;21086;44.780;17.194;2024-02-21T14:42:35;35.10;1.00
34877;DHT22;21086;44.780;17.194;2024-02-21T14:45:02;35.30;1.00
34877;DHT22;21086;44.780;17.194;2024-02-21T14:47:32;35.60;1.00
34877;DHT22;21086;44.780;17.194;2024-02-21T14:50:06;36.10;1.00
34877;DHT22;21086;44.780;17.194;2024-02-21T14:52:39;36.60;1.00
34877;DHT22;21086;44.780;17.194;2024-02-21T14:55:13;36.60;1.00
34877;DHT22;21086;44.780;17.194;2024-02-21T14:57:44;35.60;1.00
34877;DHT22;21086;44.780;17.194;2024-02-21T15:00:12;35.00;1.00
34877;DHT22;21086;44.780;17.194;2024-02-21T15:02:40;34.40;1.00
34877;DHT22;21086;44.780;17.194;2024-02-21T15:05:07;33.70;1.00
34877;DHT22;21086;44.780;17.194;2024-02-21T15:07:35;34.10;1.00
34877;DHT22;21086;44.780;17.194;2024-02-21T15:10:02;34.10;1.00
34877;DHT22;21086;44.780;17.194;2024-02-21T15:12:29;33.90;1.00
34877;DHT22;21086;44.780;17.194;2024-02-21T15:14:58;33.20;1.00
34877;DHT22;21086;44.780;17.194;2024-02-21T15:17:26;33.30;1.00
34877;DHT22;21086;44.780;17.194;2024-02-21T15:19:53;33.00;1.00
34877;DHT22;21086;44.780;17.194;2024-02-21T15:22:21;32.50;1.00
34877;DHT22;21086;44.780;17.194;2024-02-21T15:24:50;31.50;1.00
34877;DHT22;21086;44.780;17.194;2024-02-21T15:27:19;32.00;1.00
34877;DHT22;21086;44.780;17.194;2024-02-21T15:29:46;32.20;1.00
34877;DHT22;21086;44.780;17.194;2024-02-21T15:32:13;32.90;1.00
34877;DHT22;21086;44.780;17.194;2024-02-21T15:34:40;33.50;1.00
34877;DHT22;21086;44.780;17.194;2024-02-21T15:37:08;33.90;1.00
34877;DHT22;21086;44.780;17.194;2024-02-21T15:39:37;33.70;1.00